Time;durP1;ratioP1;P1;durP2;ratioP2;P2;SDS_P1;SDS_P2;PMS_P1;PMS_P2;Temp;Humidity;BMP_temperature;BMP_pressure;BME280_temperature;BME280_humidity;BME280_pressure;Samples;Min_cycle;Max_cycle;Signal;HPM_P1;HPM_P2
2022/03/21 00:01:57;;;;;;;13.68;6.38;;;;;;;;;;5102205;28;20024;-79
2022/03/21 00:04:23;;;;;;;10.25;5.82;;;;;;;;;;5094950;28;20055;-79
2022/03/21 00:06:49;;;;;;;10.63;6.00;;;;;;;;;;5098938;28;20020;-80
2022/03/21 00:09:14;;;;;;;10.65;5.97;;;;;;;;;;5100991;28;20031;-80
2022/03/21 00:11:39;;;;;;;11.50;6.32;;;;;;;;;;5100602;28;20182;-79
2022/03/21 00:14:05;;;;;;;11.65;5.85;;;;;;;;;;5101685;28;20393;-80
2022/03/21 00:16:30;;;;;;;11.48;5.80;;;;;;;;;;5101210;28;20392;-78
2022/03/21 00:18:56;;;;;;;15.20;6.40;;;;;;;;;;5098964;28;20019;-79
2022/03/21 00:21:21;;;;;;;9.75;5.40;;;;;;;;;;5098501;28;20397;-79
2022/03/21 00:23:47;;;;;;;9.27;5.80;;;;;;;;;;5100735;28;20051;-79
2022/03/21 00:26:13;;;;;;;9.82;6.07;;;;;;;;;;5098137;28;20016;-78
2022/03/21 00:28:38;;;;;;;12.23;5.90;;;;;;;;;;5099806;28;20431;-78
2022/03/21 00:31:04;;;;;;;11.27;5.78;;;;;;;;;;5099826;28;20073;-80
2022/03/21 00:33:30;;;;;;;16.35;6.20;;;;;;;;;;5097021;28;20027;-79
2022/03/21 00:35:58;;;;;;;10.68;6.20;;;;;;;;;;5098130;28;20024;-79
2022/03/21 00:38:23;;;;;;;13.52;6.30;;;;;;;;;;5100159;28;20039;-81
2022/03/21 00:40:49;;;;;;;8.98;5.57;;;;;;;;;;5098134;28;20031;-78
2022/03/21 00:43:17;;;;;;;12.75;5.88;;;;;;;;;;5098493;28;20042;-78
2022/03/21 00:45:42;;;;;;;10.23;5.68;;;;;;;;;;5099502;28;20024;-78
2022/03/21 00:48:07;;;;;;;11.73;6.15;;;;;;;;;;5101086;28;20072;-78
2022/03/21 00:50:34;;;;;;;10.63;6.07;;;;;;;;;;5102223;28;20045;-79
2022/03/21 00:52:59;;;;;;;10.02;6.07;;;;;;;;;;5100919;28;20104;-79
2022/03/21 00:55:29;;;;;;;10.18;5.57;;;;;;;;;;5099179;28;20024;-78
2022/03/21 00:57:55;;;;;;;12.73;6.22;;;;;;;;;;5101085;28;20016;-79
2022/03/21 01:00:25;;;;;;;9.98;5.32;;;;;;;;;;5100435;28;20038;-80
2022/03/21 01:02:51;;;;;;;9.88;5.65;;;;;;;;;;5102770;28;20027;-80
2022/03/21 01:05:17;;;;;;;11.52;5.60;;;;;;;;;;5103684;28;20065;-79
2022/03/21 01:07:43;;;;;;;9.68;5.15;;;;;;;;;;5100707;28;20019;-79
2022/03/21 01:10:13;;;;;;;11.75;5.53;;;;;;;;;;5102947;28;20090;-79
2022/03/21 01:12:38;;;;;;;9.98;5.55;;;;;;;;;;5102909;28;20477;-79
2022/03/21 01:15:04;;;;;;;9.10;5.47;;;;;;;;;;5102166;28;20097;-80
2022/03/21 01:17:30;;;;;;;10.68;5.50;;;;;;;;;;5104060;28;20388;-79
2022/03/21 01:19:55;;;;;;;10.75;5.57;;;;;;;;;;5101921;28;20036;-79
2022/03/21 01:22:20;;;;;;;7.57;4.57;;;;;;;;;;5103685;28;20031;-80
2022/03/21 01:24:45;;;;;;;10.20;5.22;;;;;;;;;;5104139;28;20384;-79
2022/03/21 01:27:11;;;;;;;11.13;5.47;;;;;;;;;;5103349;28;20392;-80
2022/03/21 01:29:36;;;;;;;11.60;5.18;;;;;;;;;;5105555;28;20024;-79
2022/03/21 01:32:02;;;;;;;12.43;5.88;;;;;;;;;;5106494;28;20026;-78
2022/03/21 01:34:28;;;;;;;10.85;5.57;;;;;;;;;;5107514;28;20036;-79
2022/03/21 01:36:54;;;;;;;9.95;5.28;;;;;;;;;;5108211;28;20027;-79
2022/03/21 01:39:19;;;;;;;11.13;5.78;;;;;;;;;;5107308;28;20130;-78
2022/03/21 01:41:45;;;;;;;15.60;5.10;;;;;;;;;;5107835;28;20024;-79
2022/03/21 01:44:11;;;;;;;12.30;5.15;;;;;;;;;;5104327;28;20027;-79
2022/03/21 01:46:37;;;;;;;9.25;5.25;;;;;;;;;;5102799;28;20024;-79
2022/03/21 01:49:05;;;;;;;8.57;4.78;;;;;;;;;;5099825;28;20024;-78
2022/03/21 01:51:32;;;;;;;9.90;5.30;;;;;;;;;;5100164;28;20096;-79
2022/03/21 01:56:44;;;;;;;14.55;5.30;;;;;;;;;;5102755;28;20111;-79
2022/03/21 01:59:10;;;;;;;8.20;4.70;;;;;;;;;;5102727;28;20369;-80
2022/03/21 02:01:36;;;;;;;10.57;5.47;;;;;;;;;;5101444;28;20028;-78
2022/03/21 02:04:02;;;;;;;11.27;5.55;;;;;;;;;;5100185;28;20495;-80
2022/03/21 02:06:30;;;;;;;9.73;5.20;;;;;;;;;;5099750;28;20099;-78
2022/03/21 02:08:59;;;;;;;11.00;5.43;;;;;;;;;;5097383;28;20024;-76
2022/03/21 02:11:25;;;;;;;11.32;5.55;;;;;;;;;;5097405;28;20028;-77
2022/03/21 02:13:53;;;;;;;9.80;5.75;;;;;;;;;;5103307;28;20449;-79
2022/03/21 02:16:18;;;;;;;9.88;5.15;;;;;;;;;;5101029;28;20107;-79
2022/03/21 02:18:45;;;;;;;11.40;5.35;;;;;;;;;;5102064;28;20456;-79
2022/03/21 02:21:24;;;;;;;9.63;4.90;;;;;;;;;;5102827;28;20397;-79
2022/03/21 02:23:56;;;;;;;8.32;4.82;;;;;;;;;;5101321;28;20119;-78
2022/03/21 02:26:22;;;;;;;13.68;5.45;;;;;;;;;;5101182;28;20031;-79
2022/03/21 02:28:49;;;;;;;10.82;5.38;;;;;;;;;;5100572;28;20123;-79
2022/03/21 02:31:16;;;;;;;9.57;5.22;;;;;;;;;;5102287;28;20109;-79
2022/03/21 02:33:41;;;;;;;11.07;5.43;;;;;;;;;;5098144;28;20028;-77
2022/03/21 02:36:08;;;;;;;9.82;5.55;;;;;;;;;;5099710;28;20030;-78
2022/03/21 02:38:33;;;;;;;12.23;5.40;;;;;;;;;;5100200;28;20038;-79
2022/03/21 02:40:59;;;;;;;10.80;5.75;;;;;;;;;;5099628;28;20487;-79
2022/03/21 02:43:24;;;;;;;11.75;5.40;;;;;;;;;;5099584;28;20028;-80
2022/03/21 02:45:50;;;;;;;11.65;5.60;;;;;;;;;;5099472;28;20023;-79
2022/03/21 02:48:16;;;;;;;15.15;5.47;;;;;;;;;;5099608;28;20024;-78
2022/03/21 02:50:45;;;;;;;10.77;5.72;;;;;;;;;;5099229;28;20034;-79
2022/03/21 02:53:11;;;;;;;10.35;5.63;;;;;;;;;;5098196;28;20035;-79
2022/03/21 02:55:38;;;;;;;9.07;5.07;;;;;;;;;;5100356;28;20480;-79
2022/03/21 02:58:03;;;;;;;10.23;5.18;;;;;;;;;;5099360;28;20055;-79
2022/03/21 03:00:29;;;;;;;10.70;5.28;;;;;;;;;;5099381;28;20065;-79
2022/03/21 03:02:54;;;;;;;9.52;5.13;;;;;;;;;;5097793;28;20031;-79
2022/03/21 03:05:19;;;;;;;9.32;5.05;;;;;;;;;;5098711;28;20058;-79
2022/03/21 03:07:45;;;;;;;12.75;5.00;;;;;;;;;;5097677;28;20485;-78
2022/03/21 03:10:10;;;;;;;14.40;5.30;;;;;;;;;;5098656;28;20116;-78
2022/03/21 03:12:35;;;;;;;8.02;4.90;;;;;;;;;;5097912;28;20027;-79
2022/03/21 03:15:00;;;;;;;8.65;5.30;;;;;;;;;;5098652;28;20497;-79
2022/03/21 03:17:26;;;;;;;8.82;4.50;;;;;;;;;;5098912;28;20485;-78
2022/03/21 03:19:51;;;;;;;7.55;4.47;;;;;;;;;;5101949;28;20032;-78
2022/03/21 03:22:17;;;;;;;8.20;4.70;;;;;;;;;;5097011;28;20031;-79
2022/03/21 03:24:44;;;;;;;8.90;5.05;;;;;;;;;;5097747;28;20016;-78
2022/03/21 03:27:09;;;;;;;8.57;4.45;;;;;;;;;;5095667;28;20543;-78
2022/03/21 03:29:34;;;;;;;12.38;4.72;;;;;;;;;;5096149;28;20062;-78
2022/03/21 03:32:03;;;;;;;8.65;4.90;;;;;;;;;;5096288;28;20028;-78
2022/03/21 03:34:30;;;;;;;8.48;4.40;;;;;;;;;;5095510;28;20055;-78
2022/03/21 03:36:56;;;;;;;7.05;4.00;;;;;;;;;;5094619;28;20035;-78
2022/03/21 03:39:21;;;;;;;8.93;4.78;;;;;;;;;;5096098;28;20023;-78
2022/03/21 03:41:47;;;;;;;9.13;4.85;;;;;;;;;;5095246;28;20020;-77
2022/03/21 03:44:12;;;;;;;8.60;4.70;;;;;;;;;;5095664;28;20477;-77
2022/03/21 03:46:37;;;;;;;9.30;4.28;;;;;;;;;;5095514;28;20035;-78
2022/03/21 03:49:02;;;;;;;8.90;4.32;;;;;;;;;;5095509;28;20031;-78
2022/03/21 03:51:28;;;;;;;8.45;4.40;;;;;;;;;;5095421;28;20024;-79
2022/03/21 03:53:53;;;;;;;8.60;4.53;;;;;;;;;;5097712;28;20492;-79
2022/03/21 03:56:18;;;;;;;9.18;4.32;;;;;;;;;;5098598;28;20495;-79
2022/03/21 03:58:43;;;;;;;10.68;4.15;;;;;;;;;;5098283;28;20024;-79
2022/03/21 04:01:09;;;;;;;7.72;3.90;;;;;;;;;;5098304;28;20019;-79
2022/03/21 04:03:46;;;;;;;9.80;4.85;;;;;;;;;;5097583;28;20103;-79
2022/03/21 04:06:19;;;;;;;8.88;4.03;;;;;;;;;;5097063;28;20091;-78
2022/03/21 04:08:46;;;;;;;6.43;3.80;;;;;;;;;;5095833;28;20381;-78
2022/03/21 04:11:11;;;;;;;7.03;4.38;;;;;;;;;;5096355;28;20264;-78
2022/03/21 04:13:37;;;;;;;7.60;4.50;;;;;;;;;;5095403;28;20031;-79
2022/03/21 04:16:03;;;;;;;8.45;4.10;;;;;;;;;;5095573;28;20035;-79
2022/03/21 04:18:28;;;;;;;9.52;4.72;;;;;;;;;;5098238;28;20113;-78
2022/03/21 04:20:53;;;;;;;8.02;4.38;;;;;;;;;;5102017;28;20024;-79
2022/03/21 04:23:19;;;;;;;6.72;3.85;;;;;;;;;;5101988;28;20404;-79
2022/03/21 04:25:45;;;;;;;8.35;4.30;;;;;;;;;;5101960;28;20020;-79
2022/03/21 04:28:11;;;;;;;8.18;4.35;;;;;;;;;;5103907;28;20051;-79
2022/03/21 04:30:37;;;;;;;6.93;4.05;;;;;;;;;;5102137;28;20039;-78
2022/03/21 04:33:05;;;;;;;10.65;4.85;;;;;;;;;;5099570;28;20032;-79
2022/03/21 04:35:31;;;;;;;8.88;4.25;;;;;;;;;;5100817;28;20131;-79
2022/03/21 04:37:56;;;;;;;8.75;4.50;;;;;;;;;;5098126;28;20477;-78
2022/03/21 04:40:23;;;;;;;6.97;4.38;;;;;;;;;;5098456;28;20024;-79
2022/03/21 04:42:48;;;;;;;8.02;4.30;;;;;;;;;;5099354;28;20028;-79
2022/03/21 04:45:13;;;;;;;8.23;4.50;;;;;;;;;;5098792;28;20089;-79
2022/03/21 04:47:38;;;;;;;7.35;3.50;;;;;;;;;;5101020;28;20035;-79
2022/03/21 04:50:04;;;;;;;8.02;4.35;;;;;;;;;;5101281;28;20024;-79
2022/03/21 04:52:30;;;;;;;10.60;5.03;;;;;;;;;;5100223;28;20027;-79
2022/03/21 04:54:55;;;;;;;11.00;4.57;;;;;;;;;;5102101;28;20439;-80
2022/03/21 04:57:22;;;;;;;8.73;4.60;;;;;;;;;;5101921;28;20028;-79
2022/03/21 04:59:47;;;;;;;9.43;4.70;;;;;;;;;;5102409;28;20027;-80
2022/03/21 05:02:12;;;;;;;8.38;4.38;;;;;;;;;;5102312;28;20392;-78
2022/03/21 05:04:37;;;;;;;9.30;4.45;;;;;;;;;;5101611;28;20044;-79
2022/03/21 05:07:03;;;;;;;11.65;4.55;;;;;;;;;;5099848;28;20383;-78
2022/03/21 05:09:28;;;;;;;7.40;4.57;;;;;;;;;;5097259;28;20439;-79
2022/03/21 05:11:53;;;;;;;13.13;4.75;;;;;;;;;;5096291;28;20502;-79
2022/03/21 05:14:19;;;;;;;9.45;4.63;;;;;;;;;;5095866;28;20388;-79
2022/03/21 05:16:46;;;;;;;9.00;4.80;;;;;;;;;;5096121;28;20039;-79
2022/03/21 05:19:12;;;;;;;14.10;5.00;;;;;;;;;;5095134;28;20087;-79
2022/03/21 05:21:38;;;;;;;9.05;4.97;;;;;;;;;;5094217;28;20515;-79
2022/03/21 05:32:15;;;;;;;8.85;4.68;;;;;;;;;;5099176;28;20062;-79
2022/03/21 05:37:24;;;;;;;11.05;5.03;;;;;;;;;;5100216;28;20089;-79
2022/03/21 05:42:33;;;;;;;9.55;4.97;;;;;;;;;;5100797;28;20031;-79
2022/03/21 05:44:58;;;;;;;9.10;5.05;;;;;;;;;;5100271;28;20427;-79
2022/03/21 05:47:24;;;;;;;10.63;5.30;;;;;;;;;;5099756;28;20111;-79
2022/03/21 05:49:50;;;;;;;9.43;4.57;;;;;;;;;;5099652;28;20059;-79
2022/03/21 05:52:16;;;;;;;12.15;5.28;;;;;;;;;;5099499;28;20024;-79
2022/03/21 05:54:41;;;;;;;10.65;5.75;;;;;;;;;;5099334;28;20021;-78
2022/03/21 05:57:06;;;;;;;9.77;5.32;;;;;;;;;;5096776;28;20031;-78
2022/03/21 06:02:16;;;;;;;8.77;5.43;;;;;;;;;;5097391;28;20031;-78
2022/03/21 06:04:42;;;;;;;9.95;5.32;;;;;;;;;;5097854;28;20024;-77
2022/03/21 06:07:07;;;;;;;8.23;5.28;;;;;;;;;;5097488;28;20043;-78
2022/03/21 06:09:33;;;;;;;9.48;5.60;;;;;;;;;;5097882;28;20035;-78
2022/03/21 06:11:58;;;;;;;10.23;5.60;;;;;;;;;;5095547;28;20024;-79
2022/03/21 06:14:23;;;;;;;8.27;5.28;;;;;;;;;;5097239;28;20473;-78
2022/03/21 06:16:48;;;;;;;9.70;5.47;;;;;;;;;;5097593;28;20032;-74
2022/03/21 06:19:14;;;;;;;9.73;5.40;;;;;;;;;;5095571;28;20020;-74
2022/03/21 06:21:39;;;;;;;8.43;5.18;;;;;;;;;;5095326;28;20024;-74
2022/03/21 06:24:05;;;;;;;11.90;6.18;;;;;;;;;;5095310;28;20051;-73
2022/03/21 06:26:30;;;;;;;8.70;5.68;;;;;;;;;;5095445;28;20020;-78
2022/03/21 06:28:55;;;;;;;8.55;5.38;;;;;;;;;;5097426;28;20055;-79
2022/03/21 06:31:21;;;;;;;13.68;6.45;;;;;;;;;;5096796;28;20023;-78
2022/03/21 06:33:46;;;;;;;15.55;6.25;;;;;;;;;;5097237;28;20035;-78
2022/03/21 06:36:11;;;;;;;13.13;6.30;;;;;;;;;;5098942;28;20389;-79
2022/03/21 06:38:37;;;;;;;12.32;5.97;;;;;;;;;;5098249;28;20733;-79
2022/03/21 06:41:04;;;;;;;10.88;4.93;;;;;;;;;;5098294;28;20385;-79
2022/03/21 06:43:29;;;;;;;9.80;5.00;;;;;;;;;;5097319;28;20090;-78
2022/03/21 06:45:55;;;;;;;9.10;4.70;;;;;;;;;;5098492;28;20049;-79
2022/03/21 06:48:25;;;;;;;11.15;5.18;;;;;;;;;;5098141;28;20035;-79
2022/03/21 06:50:52;;;;;;;9.63;5.10;;;;;;;;;;5097880;28;20107;-79
2022/03/21 06:53:18;;;;;;;7.07;4.88;;;;;;;;;;5097032;28;20020;-79
2022/03/21 06:55:45;;;;;;;8.65;4.80;;;;;;;;;;5098135;28;20028;-79
2022/03/21 06:58:14;;;;;;;6.10;3.22;;;;;;;;;;5098084;28;20044;-79
2022/03/21 07:00:43;;;;;;;9.02;4.63;;;;;;;;;;5098631;28;20053;-79
2022/03/21 07:03:08;;;;;;;8.45;4.60;;;;;;;;;;5096785;28;20031;-79
2022/03/21 07:05:35;;;;;;;8.68;4.90;;;;;;;;;;5097468;28;20092;-81
2022/03/21 07:08:00;;;;;;;7.63;4.95;;;;;;;;;;5097714;28;20468;-80
2022/03/21 07:10:26;;;;;;;7.25;4.47;;;;;;;;;;5097874;28;20035;-79
2022/03/21 07:12:51;;;;;;;10.05;4.75;;;;;;;;;;5095580;28;20438;-79
2022/03/21 07:15:17;;;;;;;7.17;4.60;;;;;;;;;;5098390;28;20016;-79
2022/03/21 07:17:42;;;;;;;8.60;4.93;;;;;;;;;;5097519;28;20256;-79
2022/03/21 07:20:10;;;;;;;9.70;4.63;;;;;;;;;;5097444;28;20091;-78
2022/03/21 07:22:35;;;;;;;6.97;4.35;;;;;;;;;;5096912;28;20020;-79
2022/03/21 07:25:00;;;;;;;7.63;4.30;;;;;;;;;;5096698;28;20020;-79
2022/03/21 07:27:25;;;;;;;9.07;4.45;;;;;;;;;;5096790;28;20039;-79
2022/03/21 07:29:51;;;;;;;7.93;3.90;;;;;;;;;;5097425;28;20024;-79
2022/03/21 07:32:17;;;;;;;10.20;4.55;;;;;;;;;;5095668;28;20271;-80
2022/03/21 07:34:42;;;;;;;8.43;4.25;;;;;;;;;;5096398;28;20027;-79
2022/03/21 07:37:08;;;;;;;9.57;4.75;;;;;;;;;;5096404;28;20024;-79
2022/03/21 07:39:35;;;;;;;9.13;3.97;;;;;;;;;;5097027;28;20038;-80
2022/03/21 07:42:01;;;;;;;9.23;4.60;;;;;;;;;;5097164;28;20028;-79
2022/03/21 07:47:17;;;;;;;6.55;3.97;;;;;;;;;;5095885;28;20027;-79
2022/03/21 07:49:46;;;;;;;9.25;3.95;;;;;;;;;;5096716;28;20020;-79
2022/03/21 07:52:12;;;;;;;7.32;4.20;;;;;;;;;;5095734;28;20473;-78
2022/03/21 07:54:39;;;;;;;9.38;4.57;;;;;;;;;;5095162;28;20031;-79
2022/03/21 07:57:05;;;;;;;9.68;4.35;;;;;;;;;;5095485;28;20024;-79
2022/03/21 07:59:31;;;;;;;6.93;4.10;;;;;;;;;;5097040;28;20067;-79
2022/03/21 08:01:58;;;;;;;9.32;4.13;;;;;;;;;;5096405;28;20024;-78
2022/03/21 08:04:23;;;;;;;7.00;4.05;;;;;;;;;;5096286;28;20024;-80
2022/03/21 08:06:48;;;;;;;6.95;4.00;;;;;;;;;;5096399;28;20481;-80
2022/03/21 08:09:14;;;;;;;6.30;4.03;;;;;;;;;;5096128;28;20024;-79
2022/03/21 08:11:39;;;;;;;7.88;3.92;;;;;;;;;;5096042;28;20724;-80
2022/03/21 08:14:04;;;;;;;12.80;3.67;;;;;;;;;;5095532;28;20028;-80
2022/03/21 08:16:29;;;;;;;6.65;3.60;;;;;;;;;;5094652;28;20032;-80
2022/03/21 08:18:55;;;;;;;6.60;3.73;;;;;;;;;;5095505;28;20027;-79
2022/03/21 08:21:20;;;;;;;6.03;3.67;;;;;;;;;;5095050;28;20253;-79
2022/03/21 08:23:47;;;;;;;8.00;3.40;;;;;;;;;;5096712;28;20088;-79
2022/03/21 08:26:13;;;;;;;8.88;4.15;;;;;;;;;;5096433;28;20016;-79
2022/03/21 08:28:38;;;;;;;7.45;3.38;;;;;;;;;;5096755;28;20093;-78
2022/03/21 08:31:03;;;;;;;6.80;3.65;;;;;;;;;;5095549;28;20027;-77
2022/03/21 08:33:28;;;;;;;8.10;4.45;;;;;;;;;;5095975;28;20027;-78
2022/03/21 08:35:54;;;;;;;6.45;3.85;;;;;;;;;;5096902;28;20418;-80
2022/03/21 08:38:19;;;;;;;9.88;3.53;;;;;;;;;;5097268;28;20028;-79
2022/03/21 08:40:45;;;;;;;6.82;3.83;;;;;;;;;;5095660;28;20131;-80
2022/03/21 08:43:10;;;;;;;8.07;4.13;;;;;;;;;;5095246;28;20055;-80
2022/03/21 08:45:36;;;;;;;8.98;4.10;;;;;;;;;;5096114;28;20087;-80
2022/03/21 08:48:01;;;;;;;7.38;3.95;;;;;;;;;;5095483;28;20028;-78
2022/03/21 08:50:27;;;;;;;10.25;3.90;;;;;;;;;;5094944;28;20031;-78
2022/03/21 08:52:54;;;;;;;7.35;3.85;;;;;;;;;;5094025;28;20028;-78
2022/03/21 08:55:19;;;;;;;8.63;3.42;;;;;;;;;;5094812;28;20027;-81
2022/03/21 08:57:44;;;;;;;7.47;3.92;;;;;;;;;;5096245;28;20032;-81
2022/03/21 09:00:11;;;;;;;7.78;4.18;;;;;;;;;;5096047;28;20032;-79
2022/03/21 09:02:37;;;;;;;7.40;4.28;;;;;;;;;;5096500;28;20028;-79
2022/03/21 09:05:06;;;;;;;7.88;4.22;;;;;;;;;;5100922;28;20048;-78
2022/03/21 09:07:32;;;;;;;7.18;4.03;;;;;;;;;;5099948;28;20050;-80
2022/03/21 09:09:57;;;;;;;8.02;4.45;;;;;;;;;;5099760;28;20069;-79
2022/03/21 09:12:23;;;;;;;8.95;4.35;;;;;;;;;;5100466;28;20020;-79
2022/03/21 09:14:48;;;;;;;6.32;3.90;;;;;;;;;;5101132;28;20032;-80
2022/03/21 09:17:13;;;;;;;11.45;4.20;;;;;;;;;;5100596;28;20031;-80
2022/03/21 09:19:39;;;;;;;7.85;3.95;;;;;;;;;;5100880;28;20051;-80
2022/03/21 09:22:04;;;;;;;7.85;4.13;;;;;;;;;;5101110;28;20550;-80
2022/03/21 09:24:30;;;;;;;8.13;4.40;;;;;;;;;;5100081;28;20020;-78
2022/03/21 09:26:55;;;;;;;6.65;4.18;;;;;;;;;;5100727;28;20026;-79
2022/03/21 09:29:20;;;;;;;10.18;4.40;;;;;;;;;;5101474;28;20028;-79
2022/03/21 09:31:47;;;;;;;7.18;4.15;;;;;;;;;;5101831;28;20043;-80
2022/03/21 09:34:13;;;;;;;10.45;4.05;;;;;;;;;;5099902;28;20141;-80
2022/03/21 09:36:39;;;;;;;8.07;4.47;;;;;;;;;;5102352;28;20439;-80
2022/03/21 09:39:06;;;;;;;7.20;4.05;;;;;;;;;;5102053;28;20020;-79
2022/03/21 09:41:32;;;;;;;6.82;4.20;;;;;;;;;;5102260;28;20385;-80
2022/03/21 09:44:03;;;;;;;6.45;3.38;;;;;;;;;;5102885;28;20028;-80
2022/03/21 09:46:30;;;;;;;6.93;3.83;;;;;;;;;;5102774;28;20016;-80
2022/03/21 09:48:57;;;;;;;10.02;4.20;;;;;;;;;;5102329;28;20020;-80
2022/03/21 09:51:25;;;;;;;5.93;3.80;;;;;;;;;;5101480;28;20465;-79
2022/03/21 09:53:51;;;;;;;7.38;3.80;;;;;;;;;;5101598;28;20497;-79
2022/03/21 09:56:17;;;;;;;12.88;4.60;;;;;;;;;;5101263;28;20024;-79
2022/03/21 09:58:44;;;;;;;8.68;4.22;;;;;;;;;;5101558;28;20020;-79
2022/03/21 10:01:11;;;;;;;9.73;4.30;;;;;;;;;;5101330;28;20035;-80
2022/03/21 10:03:40;;;;;;;6.45;4.15;;;;;;;;;;5101516;28;20081;-79
2022/03/21 10:06:25;;;;;;;7.90;4.18;;;;;;;;;;5101181;28;20020;-80
2022/03/21 10:09:02;;;;;;;9.73;3.75;;;;;;;;;;5104119;28;20030;-80
2022/03/21 10:11:28;;;;;;;10.55;4.15;;;;;;;;;;5104096;28;20024;-80
2022/03/21 10:13:53;;;;;;;10.07;4.45;;;;;;;;;;5101223;28;20030;-79
2022/03/21 10:16:18;;;;;;;7.47;4.15;;;;;;;;;;5099914;28;20024;-80
2022/03/21 10:18:52;;;;;;;6.57;3.78;;;;;;;;;;5100887;28;20024;-79
2022/03/21 10:21:18;;;;;;;8.50;3.97;;;;;;;;;;5102655;28;20062;-80
2022/03/21 10:23:46;;;;;;;8.80;4.65;;;;;;;;;;5101536;28;20028;-79
2022/03/21 10:26:29;;;;;;;9.68;4.53;;;;;;;;;;5101757;28;20031;-80
2022/03/21 10:28:58;;;;;;;9.18;4.50;;;;;;;;;;5104016;28;20078;-79
2022/03/21 10:31:52;;;;;;;7.53;4.20;;;;;;;;;;5101285;28;20031;-80
2022/03/21 10:34:20;;;;;;;7.88;4.35;;;;;;;;;;5085116;28;20047;-80
2022/03/21 10:37:02;;;;;;;6.15;4.03;;;;;;;;;;5103189;28;20508;-80
2022/03/21 10:39:28;;;;;;;7.20;4.55;;;;;;;;;;5104485;28;20400;-80
2022/03/21 10:41:56;;;;;;;10.48;4.47;;;;;;;;;;5100221;28;20058;-80
2022/03/21 10:44:22;;;;;;;10.43;4.60;;;;;;;;;;5102282;28;20024;-79
2022/03/21 10:46:52;;;;;;;7.78;4.60;;;;;;;;;;5102519;28;20507;-80
2022/03/21 10:49:27;;;;;;;14.98;4.60;;;;;;;;;;5103030;28;20153;-79
2022/03/21 10:51:54;;;;;;;7.80;4.47;;;;;;;;;;5101092;28;20489;-79
2022/03/21 10:54:39;;;;;;;6.72;4.35;;;;;;;;;;5102570;28;20093;-80
2022/03/21 10:57:06;;;;;;;7.72;4.40;;;;;;;;;;5101195;28;20117;-81
2022/03/21 10:59:32;;;;;;;9.18;4.30;;;;;;;;;;5101735;28;20500;-81
2022/03/21 11:02:17;;;;;;;7.10;4.43;;;;;;;;;;5101758;28;20334;-80
2022/03/21 11:04:44;;;;;;;8.10;4.60;;;;;;;;;;5101105;28;20020;-81
2022/03/21 11:07:11;;;;;;;7.35;3.78;;;;;;;;;;5101119;28;20024;-79
2022/03/21 11:09:37;;;;;;;4.70;3.35;;;;;;;;;;5103609;28;20409;-80
2022/03/21 11:12:04;;;;;;;5.57;2.92;;;;;;;;;;5100564;28;20100;-79
2022/03/21 11:14:30;;;;;;;6.57;4.10;;;;;;;;;;5102299;28;20496;-80
2022/03/21 11:16:55;;;;;;;11.50;4.68;;;;;;;;;;5100316;28;20028;-80
2022/03/21 11:19:20;;;;;;;8.50;4.25;;;;;;;;;;5102522;28;20397;-80
2022/03/21 11:21:48;;;;;;;6.72;4.13;;;;;;;;;;5101351;28;20024;-80
2022/03/21 11:24:15;;;;;;;8.07;4.90;;;;;;;;;;5100773;28;20461;-80
2022/03/21 11:26:51;;;;;;;8.30;4.18;;;;;;;;;;5100706;28;20020;-79
2022/03/21 11:29:59;;;;;;;10.07;5.10;;;;;;;;;;5101165;28;20028;-80
2022/03/21 11:33:09;;;;;;;8.13;3.97;;;;;;;;;;5101202;28;20024;-80
2022/03/21 11:35:36;;;;;;;11.85;4.65;;;;;;;;;;5083416;28;20104;-81
2022/03/21 11:38:24;;;;;;;12.10;5.25;;;;;;;;;;5101415;28;20092;-79
2022/03/21 11:40:50;;;;;;;7.55;4.35;;;;;;;;;;5101442;28;20020;-79
2022/03/21 11:43:18;;;;;;;9.88;5.10;;;;;;;;;;5099410;28;20077;-79
2022/03/21 11:45:45;;;;;;;9.45;4.68;;;;;;;;;;5097894;28;20477;-79
2022/03/21 11:48:16;;;;;;;10.75;4.55;;;;;;;;;;5099370;28;20028;-80
2022/03/21 11:50:42;;;;;;;9.43;4.80;;;;;;;;;;5099337;28;20060;-79
2022/03/21 11:53:09;;;;;;;7.25;4.75;;;;;;;;;;5098912;28;20027;-79
2022/03/21 11:55:45;;;;;;;10.25;4.90;;;;;;;;;;5098630;28;20377;-79
2022/03/21 11:58:39;;;;;;;8.15;4.90;;;;;;;;;;5099123;28;20161;-79
2022/03/21 12:01:06;;;;;;;9.25;5.20;;;;;;;;;;5096315;28;20027;-79
2022/03/21 12:03:32;;;;;;;8.18;4.97;;;;;;;;;;5099018;28;20032;-79
2022/03/21 12:06:18;;;;;;;8.90;5.18;;;;;;;;;;5098776;28;20430;-79
2022/03/21 12:08:49;;;;;;;9.30;5.03;;;;;;;;;;5097853;28;20169;-78
2022/03/21 12:11:39;;;;;;;9.52;5.28;;;;;;;;;;5099067;28;20085;-79
2022/03/21 12:14:20;;;;;;;6.32;4.68;;;;;;;;;;5099773;28;20465;-79
2022/03/21 12:16:47;;;;;;;8.07;5.28;;;;;;;;;;5101029;28;20170;-79
2022/03/21 12:19:12;;;;;;;9.05;5.22;;;;;;;;;;5101776;28;20024;-80
2022/03/21 12:21:37;;;;;;;9.70;4.88;;;;;;;;;;5097950;28;20030;-80
2022/03/21 12:24:12;;;;;;;13.82;4.63;;;;;;;;;;5098104;28;20016;-79
2022/03/21 12:26:51;;;;;;;8.73;5.30;;;;;;;;;;5098748;28;20069;-80
2022/03/21 12:29:33;;;;;;;9.20;5.53;;;;;;;;;;5097522;28;20028;-80
2022/03/21 12:32:24;;;;;;;10.20;5.55;;;;;;;;;;5098396;28;20027;-80
2022/03/21 12:34:54;;;;;;;8.80;4.82;;;;;;;;;;5098836;28;20028;-79
2022/03/21 12:37:31;;;;;;;8.95;4.97;;;;;;;;;;5098617;28;20066;-80
2022/03/21 12:39:59;;;;;;;12.27;5.75;;;;;;;;;;5097134;28;20024;-79
2022/03/21 12:42:27;;;;;;;9.07;5.03;;;;;;;;;;5095953;28;20024;-79
2022/03/21 12:44:52;;;;;;;8.50;5.30;;;;;;;;;;5097589;28;20426;-78
2022/03/21 12:47:20;;;;;;;10.30;5.57;;;;;;;;;;5099561;28;20095;-80
2022/03/21 12:49:52;;;;;;;8.73;5.47;;;;;;;;;;5096406;28;20023;-80
2022/03/21 12:52:31;;;;;;;8.32;5.35;;;;;;;;;;5098722;28;20452;-80
2022/03/21 12:54:58;;;;;;;12.20;5.60;;;;;;;;;;5099496;28;20091;-78
2022/03/21 12:57:23;;;;;;;8.95;5.72;;;;;;;;;;5098293;28;20031;-79
2022/03/21 12:59:48;;;;;;;7.60;5.28;;;;;;;;;;5099029;28;20392;-80
2022/03/21 13:02:27;;;;;;;11.15;5.55;;;;;;;;;;5099532;28;20111;-80
2022/03/21 13:10:34;;;;;;;12.38;5.55;;;;;;;;;;5097818;28;20524;-79
2022/03/21 13:13:01;;;;;;;8.65;5.30;;;;;;;;;;5098065;28;20050;-80
2022/03/21 13:15:27;;;;;;;8.85;5.07;;;;;;;;;;5098022;28;20060;-79
2022/03/21 13:17:57;;;;;;;9.25;5.07;;;;;;;;;;5098710;28;20023;-80
2022/03/21 13:20:27;;;;;;;13.73;5.60;;;;;;;;;;5098366;28;20032;-79
2022/03/21 13:22:54;;;;;;;9.48;5.72;;;;;;;;;;5097124;28;20039;-80
2022/03/21 13:25:27;;;;;;;10.52;5.70;;;;;;;;;;5098027;28;20370;-81
2022/03/21 13:28:13;;;;;;;9.38;5.25;;;;;;;;;;5096616;28;20372;-79
2022/03/21 13:30:58;;;;;;;10.32;5.88;;;;;;;;;;5095718;28;20392;-79
2022/03/21 13:33:26;;;;;;;11.15;5.82;;;;;;;;;;5096756;28;20396;-80
2022/03/21 13:35:53;;;;;;;11.30;5.65;;;;;;;;;;5096159;28;20165;-80
2022/03/21 13:38:22;;;;;;;12.75;6.57;;;;;;;;;;5097347;28;20127;-81
2022/03/21 13:40:47;;;;;;;11.40;6.75;;;;;;;;;;5096532;28;20365;-80
2022/03/21 13:43:17;;;;;;;8.98;4.75;;;;;;;;;;5096899;28;20050;-79
2022/03/21 13:45:46;;;;;;;8.32;4.35;;;;;;;;;;5098137;28;20016;-80
2022/03/21 13:48:30;;;;;;;10.30;5.68;;;;;;;;;;5097108;28;20397;-79
2022/03/21 13:50:59;;;;;;;11.73;5.47;;;;;;;;;;5097959;28;20047;-80
2022/03/21 13:53:27;;;;;;;10.75;5.50;;;;;;;;;;5101670;28;20056;-80
2022/03/21 13:55:52;;;;;;;8.75;4.95;;;;;;;;;;5099393;28;20461;-79
2022/03/21 13:58:28;;;;;;;9.35;5.60;;;;;;;;;;5099689;28;20035;-80
2022/03/21 14:00:54;;;;;;;8.80;5.47;;;;;;;;;;5100352;28;20032;-80
2022/03/21 14:03:53;;;;;;;9.18;5.45;;;;;;;;;;5100430;28;20027;-80
2022/03/21 14:06:20;;;;;;;11.70;5.90;;;;;;;;;;5079997;28;20081;-80
2022/03/21 14:08:45;;;;;;;12.05;4.88;;;;;;;;;;5099099;28;20481;-80
2022/03/21 14:11:14;;;;;;;6.57;4.70;;;;;;;;;;5099228;28;20110;-79
2022/03/21 14:13:46;;;;;;;9.68;5.13;;;;;;;;;;5099165;28;20038;-80
2022/03/21 14:16:11;;;;;;;10.73;4.72;;;;;;;;;;5098627;28;20077;-81
2022/03/21 14:18:39;;;;;;;10.63;5.05;;;;;;;;;;5097997;28;20016;-79
2022/03/21 14:21:06;;;;;;;7.97;4.68;;;;;;;;;;5099412;28;20031;-79
2022/03/21 14:23:33;;;;;;;7.15;4.40;;;;;;;;;;5100126;28;20024;-81
2022/03/21 14:28:45;;;;;;;11.13;4.95;;;;;;;;;;5099994;28;20059;-79
2022/03/21 14:31:11;;;;;;;8.23;4.38;;;;;;;;;;5097746;28;20028;-79
2022/03/21 14:33:37;;;;;;;9.82;4.57;;;;;;;;;;5099090;28;20016;-81
2022/03/21 14:36:04;;;;;;;8.38;4.50;;;;;;;;;;5099092;28;20028;-80
2022/03/21 14:38:30;;;;;;;8.77;4.82;;;;;;;;;;5098097;28;20031;-80
2022/03/21 14:40:56;;;;;;;7.80;4.50;;;;;;;;;;5097625;28;20016;-80
2022/03/21 14:43:25;;;;;;;8.43;4.57;;;;;;;;;;5096028;28;20383;-79
2022/03/21 14:45:55;;;;;;;7.40;4.28;;;;;;;;;;5095701;28;20012;-79
2022/03/21 14:48:22;;;;;;;9.57;4.38;;;;;;;;;;5097218;28;20066;-80
2022/03/21 14:50:48;;;;;;;7.10;3.42;;;;;;;;;;5097294;28;20099;-80
2022/03/21 14:53:13;;;;;;;5.72;3.95;;;;;;;;;;5097546;28;20055;-80
2022/03/21 14:55:38;;;;;;;7.00;4.50;;;;;;;;;;5097345;28;20068;-79
2022/03/21 14:58:03;;;;;;;9.27;4.72;;;;;;;;;;5096773;28;20279;-80
2022/03/21 15:00:29;;;;;;;7.10;4.50;;;;;;;;;;5096959;28;20024;-80
2022/03/21 15:02:54;;;;;;;8.02;4.53;;;;;;;;;;5096179;28;20257;-80
2022/03/21 15:05:19;;;;;;;8.40;4.63;;;;;;;;;;5097147;28;20020;-80
2022/03/21 15:07:45;;;;;;;8.43;4.55;;;;;;;;;;5096267;28;20453;-80
2022/03/21 15:10:23;;;;;;;8.32;4.72;;;;;;;;;;5095297;28;20046;-80
2022/03/21 15:12:54;;;;;;;8.68;4.68;;;;;;;;;;5095422;28;20108;-79